createdAt,value
2023-04-23T00:00:56.175Z,0.4164
2023-04-23T00:01:57.818Z,0.4169
2023-04-23T00:02:59.873Z,0.4190
2023-04-23T00:04:01.474Z,0.4203
2023-04-23T00:05:02.784Z,0.4187
2023-04-23T00:06:04.467Z,0.4196
2023-04-23T00:07:06.013Z,0.4220
2023-04-23T00:08:07.794Z,0.4197
2023-04-23T00:09:09.335Z,0.4179
2023-04-23T00:10:11.007Z,0.4181
2023-04-23T00:11:13.192Z,0.4199
2023-04-23T00:12:14.282Z,0.4205
2023-04-23T00:13:15.909Z,0.4168
2023-04-23T00:14:17.629Z,0.4202
2023-04-23T00:15:19.719Z,0.4218
2023-04-23T00:16:20.887Z,0.4195
2023-04-23T00:17:22.492Z,0.4197
2023-04-23T00:18:24.154Z,0.4134
2023-04-23T00:19:25.828Z,0.4093
2023-04-23T00:20:27.405Z,0.4096
2023-04-23T00:21:29.030Z,0.4072
2023-04-23T00:22:30.737Z,0.4041
2023-04-23T00:23:32.447Z,0.4031
2023-04-23T00:24:34.330Z,0.4038
2023-04-23T00:25:35.590Z,0.4060
2023-04-23T00:26:37.313Z,0.4049
2023-04-23T00:27:38.931Z,0.4047
2023-04-23T00:28:41.340Z,0.4047
2023-04-23T00:29:42.215Z,0.4050
2023-04-23T00:30:43.883Z,0.4048
2023-04-23T00:31:45.485Z,0.4063
2023-04-23T00:32:47.330Z,0.4050
2023-04-23T00:33:48.736Z,0.4092
2023-04-23T00:34:50.770Z,0.4105
2023-04-23T00:35:52.018Z,0.4105
2023-04-23T00:36:53.733Z,0.4110
2023-04-23T00:37:55.290Z,0.4121
2023-04-23T00:38:57.027Z,0.4108
2023-04-23T00:39:58.764Z,0.4122
2023-04-23T00:41:00.353Z,0.4091
2023-04-23T00:42:01.878Z,0.4080
2023-04-23T00:43:03.568Z,0.4066
2023-04-23T00:44:05.325Z,0.4068
2023-04-23T00:45:06.861Z,0.4079
2023-04-23T00:46:09.314Z,0.4076
2023-04-23T00:47:10.072Z,0.4056
2023-04-23T00:48:11.805Z,0.4054
2023-04-23T00:49:14.323Z,0.4046
2023-04-23T00:50:15.163Z,0.4060
2023-04-23T00:51:17.370Z,0.4040
2023-04-23T00:52:18.359Z,0.4014
2023-04-23T00:53:19.982Z,0.4016
2023-04-23T00:54:21.570Z,0.4019
2023-04-23T00:55:23.331Z,0.4009
2023-04-23T00:56:24.960Z,0.4015
2023-04-23T00:57:26.594Z,0.4030
2023-04-23T00:58:28.140Z,0.4029
2023-04-23T00:59:29.817Z,0.4027
2023-04-23T01:00:32.319Z,0.4021
2023-04-23T01:01:33.251Z,0.4005
2023-04-23T01:02:34.812Z,0.3994
2023-04-23T01:03:36.682Z,0.3988
2023-04-23T01:04:38.177Z,0.3972
2023-04-23T01:05:39.853Z,0.3997
2023-04-23T01:06:41.472Z,0.4007
2023-04-23T01:07:43.079Z,0.3979
2023-04-23T01:08:44.727Z,0.3996
2023-04-23T01:09:46.396Z,0.3996
2023-04-23T01:10:48.102Z,0.4013
2023-04-23T01:11:49.755Z,0.4007
2023-04-23T01:12:51.277Z,0.4013
2023-04-23T01:13:52.991Z,0.4002
2023-04-23T01:14:54.538Z,0.4007
2023-04-23T01:15:56.268Z,0.4031
2023-04-23T01:16:58.874Z,0.4019
2023-04-23T01:17:59.593Z,0.4029
2023-04-23T01:19:01.084Z,0.4005
2023-04-23T01:20:02.746Z,0.3977
2023-04-23T01:21:04.467Z,0.3952
2023-04-23T01:22:06.139Z,0.3964
2023-04-23T01:23:07.763Z,0.3963
2023-04-23T01:24:09.367Z,0.3992
2023-04-23T01:25:10.977Z,0.4010
2023-04-23T01:26:13.592Z,0.3994
2023-04-23T01:27:14.341Z,0.3969
2023-04-23T01:28:15.956Z,0.3989
2023-04-23T01:29:17.599Z,0.3982
2023-04-23T01:30:19.232Z,0.3959
2023-04-23T01:31:20.966Z,0.3933
2023-04-23T01:32:22.647Z,0.3912
2023-04-23T01:33:24.118Z,0.3934
2023-04-23T01:34:26.778Z,0.3938
2023-04-23T01:35:27.343Z,0.3914
2023-04-23T01:36:29.359Z,0.3910
2023-04-23T01:37:30.818Z,0.3919
2023-04-23T01:38:33.295Z,0.3903
2023-04-23T01:39:33.996Z,0.3927
2023-04-23T01:40:36.014Z,0.3919
2023-04-23T01:41:37.237Z,0.3910
2023-04-23T01:42:38.944Z,0.3910
2023-04-23T01:43:40.558Z,0.3907
2023-04-23T01:44:42.568Z,0.3919
2023-04-23T01:45:43.914Z,0.3920
2023-04-23T01:46:45.432Z,0.3927
2023-04-23T01:47:47.224Z,0.3922
2023-04-23T01:48:48.762Z,0.3940
2023-04-23T01:49:50.397Z,0.3942
2023-04-23T01:50:52.141Z,0.3930
2023-04-23T01:51:53.672Z,0.3917
2023-04-23T01:52:55.406Z,0.3921
2023-04-23T01:53:56.918Z,0.3920
2023-04-23T01:54:59.038Z,0.3925
2023-04-23T01:56:00.236Z,0.3925
2023-04-23T01:57:01.880Z,0.3932
2023-04-23T01:58:03.505Z,0.3923
2023-04-23T01:59:06.466Z,0.3919
2023-04-23T02:00:06.760Z,0.3900
2023-04-23T02:01:09.492Z,0.3889
2023-04-23T02:02:10.069Z,0.3866
2023-04-23T02:03:11.892Z,0.3846
2023-04-23T02:04:13.380Z,0.3855
2023-04-23T02:05:15.181Z,0.3843
2023-04-23T02:06:16.613Z,0.3834
2023-04-23T02:07:18.286Z,0.3848
2023-04-23T02:08:19.938Z,0.3842
2023-04-23T02:09:22.649Z,0.3839
2023-04-23T02:10:23.163Z,0.3859
2023-04-23T02:11:25.096Z,0.3842
2023-04-23T02:12:26.584Z,0.3837
2023-04-23T02:13:28.514Z,0.3838
2023-04-23T02:14:29.756Z,0.3826
2023-04-23T02:15:31.487Z,0.3820
2023-04-23T02:16:33.136Z,0.3833
2023-04-23T02:17:34.784Z,0.3835
2023-04-23T02:18:36.366Z,0.3848
2023-04-23T02:19:38.083Z,0.3908
2023-04-23T02:20:39.666Z,0.3923
2023-04-23T02:21:41.422Z,0.3919
2023-04-23T02:22:43.882Z,0.3920
2023-04-23T02:23:44.664Z,0.3929
2023-04-23T02:24:46.306Z,0.3949
2023-04-23T02:25:48.004Z,0.3958
2023-04-23T02:26:49.549Z,0.3973
2023-04-23T02:27:51.218Z,0.3961
2023-04-23T02:28:53.010Z,0.3952
2023-04-23T02:29:54.499Z,0.3941
2023-04-23T02:30:56.090Z,0.3941
2023-04-23T02:31:57.930Z,0.3918
2023-04-23T02:32:59.437Z,0.3900
2023-04-23T02:34:01.029Z,0.3887
2023-04-23T02:35:02.645Z,0.3887
2023-04-23T02:36:04.308Z,0.3903
2023-04-23T02:37:06.957Z,0.3922
2023-04-23T02:38:07.521Z,0.3942
2023-04-23T02:39:09.102Z,0.3952
2023-04-23T02:40:10.907Z,0.3967
2023-04-23T02:41:12.928Z,0.3952
2023-04-23T02:42:14.204Z,0.3972
2023-04-23T02:43:15.783Z,0.3955
2023-04-23T02:44:17.426Z,0.3955
2023-04-23T02:45:19.088Z,0.3940
2023-04-23T02:46:20.780Z,0.3921
2023-04-23T02:47:22.447Z,0.3913
2023-04-23T02:48:24.031Z,0.3925
2023-04-23T02:49:25.650Z,0.3951
2023-04-23T02:50:27.305Z,0.3970
2023-04-23T02:51:29.509Z,0.3967
2023-04-23T02:52:30.579Z,0.3964
2023-04-23T02:53:32.217Z,0.3957
2023-04-23T02:54:33.829Z,0.3940
2023-04-23T02:55:35.500Z,0.3927
2023-04-23T02:56:37.144Z,0.3926
2023-04-23T02:57:38.932Z,0.3931
2023-04-23T02:58:40.392Z,0.3932
2023-04-23T02:59:42.118Z,0.3952
2023-04-23T03:00:43.725Z,0.3942
2023-04-23T03:01:45.394Z,0.3969
2023-04-23T03:02:47.126Z,0.3971
2023-04-23T03:03:48.869Z,0.3991
2023-04-23T03:04:50.256Z,0.3989
2023-04-23T03:05:51.926Z,0.3983
2023-04-23T03:06:53.639Z,0.3986
2023-04-23T03:07:55.936Z,0.3962
2023-04-23T03:08:56.812Z,0.3975
2023-04-23T03:09:58.539Z,0.4003
2023-04-23T03:11:00.167Z,0.4039
2023-04-23T03:12:02.486Z,0.4072
2023-04-23T03:13:03.454Z,0.4068
2023-04-23T03:14:05.140Z,0.4073
2023-04-23T03:15:06.706Z,0.4067
2023-04-23T03:16:08.934Z,0.4043
2023-04-23T03:17:10.060Z,0.4053
2023-04-23T03:18:11.716Z,0.4045
2023-04-23T03:19:13.345Z,0.4034
2023-04-23T03:20:15.914Z,0.4031
2023-04-23T03:21:16.557Z,0.4036
2023-04-23T03:22:18.307Z,0.4043
2023-04-23T03:23:19.926Z,0.4024
2023-04-23T03:24:21.559Z,0.4006
2023-04-23T03:25:23.117Z,0.4000
2023-04-23T03:26:24.828Z,0.4001
2023-04-23T03:27:26.481Z,0.3988
2023-04-23T03:28:28.162Z,0.3967
2023-04-23T03:29:29.707Z,0.3949
2023-04-23T03:30:31.381Z,0.3948
2023-04-23T03:31:32.975Z,0.3946
2023-04-23T03:32:34.714Z,0.3966
2023-04-23T03:33:36.341Z,0.3993
2023-04-23T03:34:37.952Z,0.3990
2023-04-23T03:35:39.594Z,0.3994
2023-04-23T03:36:41.204Z,0.3982
2023-04-23T03:37:42.907Z,0.3982
2023-04-23T03:38:44.596Z,0.3988
2023-04-23T03:39:46.147Z,0.4009
2023-04-23T03:40:47.843Z,0.4005
2023-04-23T03:41:49.418Z,0.4018
2023-04-23T03:42:51.169Z,0.4023
2023-04-23T03:43:53.430Z,0.4020
2023-04-23T03:44:54.371Z,0.3996
2023-04-23T03:45:56.104Z,0.3970
2023-04-23T03:46:58.402Z,0.3993
2023-04-23T03:47:59.428Z,0.4022
2023-04-23T03:49:01.454Z,0.4043
2023-04-23T03:50:02.604Z,0.4070
2023-04-23T03:51:04.229Z,0.4066
2023-04-23T03:52:05.908Z,0.4066
2023-04-23T03:53:07.596Z,0.4079
2023-04-23T03:54:09.128Z,0.4071
2023-04-23T03:55:10.787Z,0.4040
2023-04-23T03:56:12.397Z,0.4047
2023-04-23T03:57:14.016Z,0.4038
2023-04-23T03:58:15.700Z,0.4036
2023-04-23T03:59:17.333Z,0.4032
2023-04-23T04:00:19.032Z,0.4041
2023-04-23T04:01:20.594Z,0.4051
2023-04-23T04:02:22.408Z,0.4042
2023-04-23T04:03:25.185Z,0.4036
2023-04-23T04:04:25.832Z,0.4032
2023-04-23T04:05:27.309Z,0.4041
2023-04-23T04:06:28.914Z,0.4055
2023-04-23T04:07:30.464Z,0.4062
2023-04-23T04:08:32.133Z,0.4045
2023-04-23T04:09:33.764Z,0.4017
2023-04-23T04:10:35.932Z,0.4010
2023-04-23T04:11:37.410Z,0.3997
2023-04-23T04:12:38.739Z,0.3997
2023-04-23T04:13:40.370Z,0.3979
2023-04-23T04:14:42.301Z,0.3956
2023-04-23T04:15:44.459Z,0.3968
2023-04-23T04:16:45.368Z,0.3969
2023-04-23T04:17:47.017Z,0.3977
2023-04-23T04:18:48.724Z,0.3996
2023-04-23T04:19:50.606Z,0.3989
2023-04-23T04:20:52.031Z,0.3982
2023-04-23T04:21:53.630Z,0.3969
2023-04-23T04:22:55.295Z,0.3964
2023-04-23T04:23:57.980Z,0.3964
2023-04-23T04:24:58.454Z,0.3955
2023-04-23T04:26:00.203Z,0.3934
2023-04-23T04:27:01.869Z,0.3938
2023-04-23T04:28:03.554Z,0.3946
2023-04-23T04:29:05.126Z,0.3927
2023-04-23T04:30:06.880Z,0.3911
2023-04-23T04:31:08.505Z,0.3892
2023-04-23T04:32:10.098Z,0.3881
2023-04-23T04:33:11.770Z,0.3887
2023-04-23T04:34:13.449Z,0.3897
2023-04-23T04:35:14.968Z,0.3900
2023-04-23T04:36:16.703Z,0.3891
2023-04-23T04:37:18.279Z,0.3875
2023-04-23T04:38:19.960Z,0.3865
2023-04-23T04:39:21.583Z,0.3867
2023-04-23T04:40:23.278Z,0.3856
2023-04-23T04:41:24.920Z,0.3855
2023-04-23T04:42:26.534Z,0.3840
2023-04-23T04:43:28.227Z,0.3848
2023-04-23T04:44:29.796Z,0.3875
2023-04-23T04:45:31.509Z,0.3901
2023-04-23T04:46:33.131Z,0.3910
2023-04-23T04:47:34.776Z,0.3906
2023-04-23T04:48:37.377Z,0.3897
2023-04-23T04:49:38.089Z,0.3894
2023-04-23T04:50:39.680Z,0.3896
2023-04-23T04:51:41.293Z,0.3877
2023-04-23T04:52:42.983Z,0.3875
2023-04-23T04:53:44.589Z,0.3876
2023-04-23T04:54:46.226Z,0.3864
2023-04-23T04:55:47.907Z,0.3846
2023-04-23T04:56:49.627Z,0.3842
2023-04-23T04:57:52.200Z,0.3835
2023-04-23T04:58:53.776Z,0.3828
2023-04-23T04:59:55.350Z,0.3820
2023-04-23T05:00:56.098Z,0.3814
2023-04-23T05:01:57.793Z,0.3832
2023-04-23T05:02:59.535Z,0.3846
2023-04-23T05:04:01.109Z,0.3844
2023-04-23T05:05:02.619Z,0.3854
2023-04-23T05:06:04.302Z,0.3861
2023-04-23T05:07:05.925Z,0.3892
2023-04-23T05:08:07.574Z,0.3911
2023-04-23T05:09:09.173Z,0.3917
2023-04-23T05:10:10.931Z,0.3921
2023-04-23T05:11:12.498Z,0.3931
2023-04-23T05:12:14.238Z,0.3902
2023-04-23T05:13:15.855Z,0.3877
2023-04-23T05:14:17.459Z,0.3867
2023-04-23T05:15:19.108Z,0.3877
2023-04-23T05:16:20.871Z,0.3886
2023-04-23T05:17:23.075Z,0.3878
2023-04-23T05:18:24.120Z,0.3865
2023-04-23T05:19:25.647Z,0.3867
2023-04-23T05:20:27.352Z,0.3865
2023-04-23T05:21:29.022Z,0.3856
2023-04-23T05:22:30.670Z,0.3860
2023-04-23T05:23:32.213Z,0.3861
2023-04-23T05:24:33.948Z,0.3858
2023-04-23T05:25:35.580Z,0.3872
2023-04-23T05:26:37.267Z,0.3868
2023-04-23T05:27:38.893Z,0.3869
2023-04-23T05:28:40.517Z,0.3868
2023-04-23T05:29:42.118Z,0.3857
2023-04-23T05:30:43.804Z,0.3875
2023-04-23T05:31:45.498Z,0.3913
2023-04-23T05:32:47.198Z,0.3921
2023-04-23T05:33:50.504Z,0.3923
2023-04-23T05:34:50.372Z,0.3922
2023-04-23T05:35:52.019Z,0.3936
2023-04-23T05:36:53.772Z,0.3942
2023-04-23T05:37:55.373Z,0.3940
2023-04-23T05:38:56.996Z,0.3950
2023-04-23T05:39:58.577Z,0.3955
2023-04-23T05:41:00.291Z,0.3947
2023-04-23T05:42:02.405Z,0.3956
2023-04-23T05:43:03.579Z,0.3965
2023-04-23T05:44:05.185Z,0.3974
2023-04-23T05:45:08.864Z,0.3994
2023-04-23T05:46:08.512Z,0.4036
2023-04-23T05:47:10.203Z,0.4037
2023-04-23T05:48:11.843Z,0.4037
2023-04-23T05:49:13.468Z,0.4036
2023-04-23T05:50:15.092Z,0.4044
2023-04-23T05:51:16.788Z,0.4049
2023-04-23T05:52:18.434Z,0.4056
2023-04-23T05:53:20.162Z,0.4049
2023-04-23T05:54:21.653Z,0.4026
2023-04-23T05:55:23.338Z,0.4042
2023-04-23T05:56:25.058Z,0.4051
2023-04-23T05:57:27.525Z,0.4028
2023-04-23T05:58:28.346Z,0.4033
2023-04-23T05:59:29.978Z,0.4032
2023-04-23T06:00:31.630Z,0.4011
2023-04-23T06:01:33.205Z,0.4004
2023-04-23T06:02:35.042Z,0.4015
2023-04-23T06:03:36.793Z,0.4044
2023-04-23T06:04:38.361Z,0.4043
2023-04-23T06:05:39.835Z,0.4045
2023-04-23T06:06:41.484Z,0.4050
2023-04-23T06:07:43.180Z,0.4037
2023-04-23T06:08:45.063Z,0.4018
2023-04-23T06:09:46.401Z,0.4015
2023-04-23T06:10:48.108Z,0.4000
2023-04-23T06:11:49.683Z,0.3985
2023-04-23T06:12:51.592Z,0.3978
2023-04-23T06:13:53.060Z,0.3979
2023-04-23T06:14:54.689Z,0.4019
2023-04-23T06:15:56.319Z,0.4037
2023-04-23T06:16:57.981Z,0.4040
2023-04-23T06:17:59.666Z,0.4058
2023-04-23T06:19:01.588Z,0.4071
2023-04-23T06:20:02.904Z,0.4076
2023-04-23T06:21:04.566Z,0.4080
2023-04-23T06:22:06.164Z,0.4053
2023-04-23T06:23:07.866Z,0.4025
2023-04-23T06:24:09.504Z,0.4053
2023-04-23T06:25:11.180Z,0.4059
2023-04-23T06:26:12.722Z,0.4048
2023-04-23T06:27:14.421Z,0.4050
2023-04-23T06:28:16.163Z,0.4050
2023-04-23T06:29:17.758Z,0.4051
2023-04-23T06:30:19.374Z,0.4080
2023-04-23T06:31:21.061Z,0.4068
2023-04-23T06:32:22.630Z,0.4051
2023-04-23T06:33:24.284Z,0.4036
2023-04-23T06:34:26.131Z,0.4015
2023-04-23T06:35:27.635Z,0.3997
2023-04-23T06:36:29.166Z,0.3976
2023-04-23T06:37:31.029Z,0.3969
2023-04-23T06:38:32.428Z,0.3976
2023-04-23T06:39:34.183Z,0.3962
2023-04-23T06:40:35.718Z,0.3973
2023-04-23T06:41:37.337Z,0.3969
2023-04-23T06:42:40.096Z,0.3984
2023-04-23T06:43:40.887Z,0.4005
2023-04-23T06:44:42.675Z,0.4010
2023-04-23T06:45:44.232Z,0.4012
2023-04-23T06:46:45.826Z,0.4011
2023-04-23T06:47:48.212Z,0.3992
2023-04-23T06:48:48.999Z,0.3978
2023-04-23T06:49:50.736Z,0.3980
2023-04-23T06:50:52.379Z,0.3978
2023-04-23T06:51:56.975Z,0.3971
2023-04-23T06:52:55.476Z,0.3969
2023-04-23T06:53:57.193Z,0.3965
2023-04-23T06:54:59.862Z,0.3967
2023-04-23T06:56:00.461Z,0.3968
2023-04-23T06:57:02.179Z,0.3975
2023-04-23T06:58:03.753Z,0.3979
2023-04-23T06:59:05.356Z,0.3921
2023-04-23T07:00:07.109Z,0.3942
2023-04-23T07:01:08.701Z,0.4018
2023-04-23T07:02:10.369Z,0.4082
2023-04-23T07:03:11.997Z,0.4084
2023-04-23T07:04:13.669Z,0.4088
2023-04-23T07:05:15.272Z,0.4016
2023-04-23T07:06:18.603Z,0.4006
2023-04-23T07:07:18.508Z,0.4069
2023-04-23T07:08:20.205Z,0.4105
2023-04-23T07:09:21.818Z,0.4099
2023-04-23T07:10:23.560Z,0.4118
2023-04-23T07:11:25.142Z,0.4127
2023-04-23T07:12:26.830Z,0.4147
2023-04-23T07:13:28.442Z,0.4174
2023-04-23T07:14:30.087Z,0.4086
2023-04-23T07:15:31.845Z,0.4075
2023-04-23T07:16:33.480Z,0.4141
2023-04-23T07:17:34.992Z,0.4149
2023-04-23T07:18:36.657Z,0.4087
2023-04-23T07:19:38.288Z,0.4051
2023-04-23T07:20:39.989Z,0.4086
2023-04-23T07:21:41.578Z,0.4084
2023-04-23T07:22:43.232Z,0.4049
2023-04-23T07:23:44.865Z,0.4020
2023-04-23T07:24:46.522Z,0.4048
2023-04-23T07:25:48.183Z,0.4063
2023-04-23T07:26:49.858Z,0.4049
2023-04-23T07:27:51.401Z,0.4040
2023-04-23T07:28:53.183Z,0.4099
2023-04-23T07:29:54.704Z,0.4156
2023-04-23T07:30:56.454Z,0.4160
2023-04-23T07:31:58.077Z,0.4140
2023-04-23T07:32:59.718Z,0.4134
2023-04-23T07:34:01.392Z,0.4155
2023-04-23T07:35:02.975Z,0.4168
2023-04-23T07:36:04.598Z,0.4183
2023-04-23T07:37:06.316Z,0.4166
2023-04-23T07:38:07.860Z,0.4206
2023-04-23T07:39:09.545Z,0.4326
2023-04-23T07:40:11.189Z,0.4261
2023-04-23T07:41:12.914Z,0.4197
2023-04-23T07:42:15.068Z,0.4122
2023-04-23T07:43:16.142Z,0.4046
2023-04-23T07:44:17.761Z,0.4039
2023-04-23T07:45:19.500Z,0.4032
2023-04-23T07:46:21.146Z,0.4040
2023-04-23T07:47:23.002Z,0.3994
2023-04-23T07:48:24.413Z,0.3965
2023-04-23T07:49:26.021Z,0.4034
2023-04-23T07:50:27.637Z,0.4057
2023-04-23T07:51:29.351Z,0.4071
2023-04-23T07:52:30.957Z,0.4036
2023-04-23T07:53:32.577Z,0.4013
2023-04-23T07:54:34.207Z,0.4020
2023-04-23T07:55:35.917Z,0.4011
2023-04-23T07:56:37.597Z,0.4013
2023-04-23T07:57:39.241Z,0.4012
2023-04-23T07:58:40.815Z,0.4031
2023-04-23T07:59:42.863Z,0.4008
2023-04-23T08:00:44.088Z,0.3988
2023-04-23T08:01:45.820Z,0.3960
2023-04-23T08:02:47.614Z,0.3937
2023-04-23T08:03:49.440Z,0.3944
2023-04-23T08:04:50.827Z,0.3947
2023-04-23T08:05:52.336Z,0.3935
2023-04-23T08:06:54.045Z,0.3925
2023-04-23T08:07:55.645Z,0.3944
2023-04-23T08:08:57.308Z,0.3932
2023-04-23T08:09:58.900Z,0.3923
2023-04-23T08:11:00.547Z,0.3928
2023-04-23T08:12:02.236Z,0.3945
2023-04-23T08:13:03.902Z,0.3946
2023-04-23T08:14:05.496Z,0.3944
2023-04-23T08:15:07.220Z,0.3925
2023-04-23T08:16:08.790Z,0.3908
2023-04-23T08:17:10.463Z,0.3906
2023-04-23T08:18:12.107Z,0.3888
2023-04-23T08:19:13.706Z,0.3890
2023-04-23T08:20:15.302Z,0.3893
2023-04-23T08:21:17.031Z,0.3892
2023-04-23T08:22:20.293Z,0.3900
2023-04-23T08:23:20.353Z,0.3923
2023-04-23T08:24:22.456Z,0.3905
2023-04-23T08:25:23.603Z,0.3910
2023-04-23T08:26:25.214Z,0.3916
2023-04-23T08:27:26.971Z,0.3917
2023-04-23T08:28:28.593Z,0.3919
2023-04-23T08:29:30.208Z,0.3922
2023-04-23T08:30:31.789Z,0.3898
2023-04-23T08:31:33.509Z,0.3920
2023-04-23T08:32:35.158Z,0.3916
2023-04-23T08:33:36.875Z,0.3911
2023-04-23T08:34:38.442Z,0.3902
2023-04-23T08:35:40.078Z,0.3894
2023-04-23T08:36:41.649Z,0.3893
2023-04-23T08:37:43.444Z,0.3896
2023-04-23T08:38:44.989Z,0.3892
2023-04-23T08:39:46.686Z,0.3897
2023-04-23T08:40:48.227Z,0.3896
2023-04-23T08:41:49.926Z,0.3907
2023-04-23T08:42:51.644Z,0.3908
2023-04-23T08:43:53.238Z,0.3912
2023-04-23T08:44:54.801Z,0.3900
2023-04-23T08:45:56.510Z,0.3897
2023-04-23T08:46:58.248Z,0.3895
2023-04-23T08:48:02.134Z,0.3911
2023-04-23T08:49:01.452Z,0.3915
2023-04-23T08:50:03.074Z,0.3914
2023-04-23T08:51:04.690Z,0.3921
2023-04-23T08:52:06.380Z,0.3960
2023-04-23T08:53:08.065Z,0.4102
2023-04-23T08:54:09.679Z,0.4117
2023-04-23T08:55:11.255Z,0.4054
2023-04-23T08:56:12.940Z,0.4105
2023-04-23T08:57:14.574Z,0.4190
2023-04-23T08:58:16.279Z,0.4100
2023-04-23T08:59:17.911Z,0.4113
2023-04-23T09:00:19.455Z,0.4079
2023-04-23T09:01:21.297Z,0.4067
2023-04-23T09:02:22.986Z,0.4066
2023-04-23T09:03:24.547Z,0.4042
2023-04-23T09:04:26.164Z,0.4006
2023-04-23T09:05:27.710Z,0.4022
2023-04-23T09:06:29.422Z,0.4005
2023-04-23T09:07:31.023Z,0.4002
2023-04-23T09:08:32.753Z,0.4003
2023-04-23T09:09:34.641Z,0.4006
2023-04-23T09:10:35.974Z,0.3992
2023-04-23T09:11:37.577Z,0.3994
2023-04-23T09:12:39.276Z,0.3991
2023-04-23T09:13:40.950Z,0.4008
2023-04-23T09:14:42.852Z,0.4007
2023-04-23T09:15:44.169Z,0.4012
2023-04-23T09:16:45.922Z,0.4007
2023-04-23T09:17:47.529Z,0.3995
2023-04-23T09:18:49.194Z,0.3978
2023-04-23T09:19:50.858Z,0.3957
2023-04-23T09:20:52.528Z,0.3950
2023-04-23T09:21:54.046Z,0.3939
2023-04-23T09:22:55.727Z,0.3942
2023-04-23T09:23:57.449Z,0.3926
2023-04-23T09:24:59.090Z,0.3921
2023-04-23T09:26:00.627Z,0.3911
2023-04-23T09:27:02.267Z,0.3921
2023-04-23T09:28:03.958Z,0.3920
2023-04-23T09:29:05.609Z,0.3931
2023-04-23T09:30:07.294Z,0.3939
2023-04-23T09:31:08.879Z,0.3935
2023-04-23T09:32:10.586Z,0.3923
2023-04-23T09:33:12.151Z,0.3916
2023-04-23T09:34:14.206Z,0.3888
2023-04-23T09:35:15.554Z,0.3873
2023-04-23T09:36:17.233Z,0.3866
2023-04-23T09:37:18.783Z,0.3857
2023-04-23T09:38:20.428Z,0.3846
2023-04-23T09:39:22.065Z,0.3839
2023-04-23T09:40:23.749Z,0.3850
2023-04-23T09:41:25.304Z,0.3853
2023-04-23T09:42:26.986Z,0.3850
2023-04-23T09:43:28.575Z,0.3836
2023-04-23T09:44:30.353Z,0.3852
2023-04-23T09:45:31.945Z,0.3864
2023-04-23T09:46:33.562Z,0.3851
2023-04-23T09:47:35.252Z,0.3851
2023-04-23T09:48:36.879Z,0.3837
2023-04-23T09:49:38.534Z,0.3818
2023-04-23T09:50:40.245Z,0.3801
2023-04-23T09:51:41.769Z,0.3778
2023-04-23T09:52:43.431Z,0.3777
2023-04-23T09:53:45.056Z,0.3792
2023-04-23T09:54:47.214Z,0.3787
2023-04-23T09:55:48.397Z,0.3807
2023-04-23T09:56:50.076Z,0.3792
2023-04-23T09:57:51.611Z,0.3866
2023-04-23T09:58:53.366Z,0.3898
2023-04-23T10:00:03.754Z,0.3915
2023-04-23T10:00:56.638Z,0.3897
2023-04-23T10:01:58.289Z,0.3943
2023-04-23T10:03:00.168Z,0.3990
2023-04-23T10:04:01.694Z,0.4011
2023-04-23T10:05:21.468Z,0.3990
2023-04-23T10:06:05.264Z,0.3977
2023-04-23T10:07:17.923Z,0.3970
2023-04-23T10:08:08.232Z,0.3939
2023-04-23T10:09:09.704Z,0.3929
2023-04-23T10:10:11.463Z,0.3925
2023-04-23T10:11:20.734Z,0.3938
2023-04-23T10:13:16.302Z,0.3943
2023-04-23T10:14:17.962Z,0.3945
2023-04-23T10:15:19.684Z,0.3944
2023-04-23T10:16:23.284Z,0.3938
2023-04-23T10:17:22.932Z,0.3935
2023-04-23T10:18:24.492Z,0.3928
2023-04-23T10:19:27.171Z,0.3928
2023-04-23T10:20:27.878Z,0.3947
2023-04-23T10:21:36.620Z,0.3987
2023-04-23T10:22:31.067Z,0.4007
2023-04-23T10:23:32.802Z,0.3968
2023-04-23T10:24:34.371Z,0.3970
2023-04-23T10:25:36.729Z,0.3982
2023-04-23T10:26:38.190Z,0.3965
2023-04-23T10:27:51.118Z,0.3896
2023-04-23T10:28:41.042Z,0.3904
2023-04-23T10:29:43.017Z,0.3847
2023-04-23T10:30:44.681Z,0.3849
2023-04-23T10:31:45.980Z,0.3820
2023-04-23T10:32:47.561Z,0.3865
2023-04-23T10:33:58.204Z,0.3850
2023-04-23T10:34:50.931Z,0.3844
2023-04-23T10:35:52.601Z,0.3843
2023-04-23T10:36:54.181Z,0.3872
2023-04-23T10:37:55.844Z,0.3930
2023-04-23T10:38:59.106Z,0.3938
2023-04-23T10:39:59.132Z,0.3966
2023-04-23T10:41:00.801Z,0.4009
2023-04-23T10:42:02.466Z,0.4017
2023-04-23T10:43:04.026Z,0.3981
2023-04-23T10:44:05.723Z,0.4003
2023-04-23T10:45:16.613Z,0.4009
2023-04-23T10:46:09.139Z,0.4000
2023-04-23T10:47:10.738Z,0.4003
2023-04-23T10:48:12.460Z,0.4057
2023-04-23T10:49:14.016Z,0.4076
2023-04-23T10:50:15.744Z,0.4041
2023-04-23T10:51:56.084Z,0.4031
2023-04-23T10:52:21.495Z,0.4040
2023-04-23T10:53:20.604Z,0.4076
2023-04-23T10:54:22.319Z,0.4094
2023-04-23T10:55:23.969Z,0.4181
2023-04-23T10:56:25.789Z,0.4270
2023-04-23T10:57:27.271Z,0.4303
2023-04-23T10:58:28.943Z,0.4338
2023-04-23T10:59:30.465Z,0.4378
2023-04-23T11:00:32.164Z,0.4391
2023-04-23T11:01:33.827Z,0.4414
2023-04-23T11:02:35.607Z,0.4421
2023-04-23T11:03:39.646Z,0.4394
2023-04-23T11:04:38.834Z,0.4339
2023-04-23T11:05:40.389Z,0.4303
2023-04-23T11:06:42.089Z,0.4342
2023-04-23T11:07:43.750Z,0.4306
2023-04-23T11:08:45.426Z,0.4257
2023-04-23T11:09:47.013Z,0.4262
2023-04-23T11:10:48.667Z,0.4269
2023-04-23T11:11:50.288Z,0.4248
2023-04-23T11:12:52.027Z,0.4171
2023-04-23T11:13:53.621Z,0.4190
2023-04-23T11:14:55.307Z,0.4185
2023-04-23T11:15:56.907Z,0.4182
2023-04-23T11:16:58.530Z,0.4194
2023-04-23T11:18:00.216Z,0.4195
2023-04-23T11:19:01.911Z,0.4217
2023-04-23T11:20:03.558Z,0.4089
2023-04-23T11:21:05.187Z,0.4072
2023-04-23T11:22:06.767Z,0.4132
2023-04-23T11:23:08.462Z,0.4121
2023-04-23T11:24:10.097Z,0.4131
2023-04-23T11:25:11.842Z,0.4172
2023-04-23T11:26:13.424Z,0.4151
2023-04-23T11:27:15.044Z,0.4171
2023-04-23T11:28:16.694Z,0.4205
2023-04-23T11:29:18.339Z,0.4164
2023-04-23T11:30:19.962Z,0.4112
2023-04-23T11:31:21.656Z,0.4139
2023-04-23T11:32:23.298Z,0.4113
2023-04-23T11:33:24.927Z,0.4079
2023-04-23T11:34:26.604Z,0.4085
2023-04-23T11:35:28.167Z,0.4020
2023-04-23T11:36:30.699Z,0.4006
2023-04-23T11:37:31.480Z,0.4008
2023-04-23T11:38:33.056Z,0.3917
2023-04-23T11:39:34.733Z,0.3908
2023-04-23T11:40:36.643Z,0.3931
2023-04-23T11:41:38.087Z,0.4066
2023-04-23T11:42:39.664Z,0.4054
2023-04-23T11:43:42.212Z,0.4005
2023-04-23T11:44:42.972Z,0.3956
2023-04-23T11:45:44.701Z,0.3949
2023-04-23T11:46:46.272Z,0.3944
2023-04-23T11:47:47.962Z,0.3948
2023-04-23T11:48:49.562Z,0.3925
2023-04-23T11:49:51.271Z,0.3904
2023-04-23T11:50:53.130Z,0.3990
2023-04-23T11:51:54.611Z,0.4034
2023-04-23T11:52:56.201Z,0.4013
2023-04-23T11:53:57.906Z,0.4014
2023-04-23T11:54:59.467Z,0.4035
2023-04-23T11:56:01.219Z,0.3981
2023-04-23T11:57:02.788Z,0.3873
2023-04-23T11:58:04.472Z,0.3906
2023-04-23T11:59:06.069Z,0.3967
2023-04-23T12:00:07.763Z,0.3983
2023-04-23T12:01:09.448Z,0.4066
2023-04-23T12:02:11.100Z,0.4104
2023-04-23T12:03:12.936Z,0.4115
2023-04-23T12:04:14.662Z,0.4069
2023-04-23T12:05:16.154Z,0.3999
2023-04-23T12:06:17.883Z,0.3950
2023-04-23T12:07:26.341Z,0.3931
2023-04-23T12:08:21.140Z,0.3935
2023-04-23T12:09:23.725Z,0.3971
2023-04-23T12:10:24.392Z,0.4075
2023-04-23T12:11:26.122Z,0.3973
2023-04-23T12:12:27.738Z,0.4006
2023-04-23T12:13:29.407Z,0.4065
2023-04-23T12:14:31.176Z,0.4024
2023-04-23T12:15:32.780Z,0.4031
2023-04-23T12:16:34.271Z,0.4014
2023-04-23T12:17:35.997Z,0.4018
2023-04-23T12:18:37.680Z,0.3991
2023-04-23T12:19:39.380Z,0.3935
2023-04-23T12:20:40.888Z,0.3884
2023-04-23T12:21:42.685Z,0.3845
2023-04-23T12:22:44.193Z,0.3805
2023-04-23T12:23:45.915Z,0.3798
2023-04-23T12:24:47.416Z,0.3868
2023-04-23T12:25:49.193Z,0.4006
2023-04-23T12:26:50.810Z,0.4121
2023-04-23T12:27:52.459Z,0.4126
2023-04-23T12:28:54.914Z,0.4032
2023-04-23T12:29:55.751Z,0.4041
2023-04-23T12:30:57.348Z,0.3950
2023-04-23T12:31:59.134Z,0.3929
2023-04-23T12:33:00.684Z,0.3917
2023-04-23T12:34:02.465Z,0.3942
2023-04-23T12:35:03.934Z,0.3996
2023-04-23T12:36:05.631Z,0.3967
2023-04-23T12:37:07.307Z,0.3924
2023-04-23T12:38:09.008Z,0.3884
2023-04-23T12:39:10.632Z,0.3864
2023-04-23T12:40:12.228Z,0.3891
2023-04-23T12:41:13.895Z,0.3919
2023-04-23T12:42:16.515Z,0.3927
2023-04-23T12:43:17.442Z,0.3917
2023-04-23T12:44:18.885Z,0.3903
2023-04-23T12:45:20.506Z,0.3860
2023-04-23T12:46:22.158Z,0.3913
2023-04-23T12:47:24.631Z,0.3904
2023-04-23T12:48:25.468Z,0.3855
2023-04-23T12:49:27.261Z,0.3889
2023-04-23T12:50:28.828Z,0.3922